sensor_id;sensor_type;location;lat;lon;timestamp;P1;durP1;ratioP1;P2;durP2;ratioP2
5981;SDS011;3018;48.730;9.336;2023-05-07T00:02:15;6.13;;;5.53;;
5981;SDS011;3018;48.730;9.336;2023-05-07T00:04:41;5.07;;;4.68;;
5981;SDS011;3018;48.730;9.336;2023-05-07T00:07:09;4.00;;;3.55;;
5981;SDS011;3018;48.730;9.336;2023-05-07T00:09:37;5.05;;;3.08;;
5981;SDS011;3018;48.730;9.336;2023-05-07T00:12:03;3.33;;;3.17;;
5981;SDS011;3018;48.730;9.336;2023-05-07T00:14:29;3.33;;;3.13;;
5981;SDS011;3018;48.730;9.336;2023-05-07T00:16:55;5.47;;;4.50;;
5981;SDS011;3018;48.730;9.336;2023-05-07T00:19:22;5.82;;;4.50;;
5981;SDS011;3018;48.730;9.336;2023-05-07T00:21:48;5.20;;;4.60;;
5981;SDS011;3018;48.730;9.336;2023-05-07T00:24:14;6.93;;;4.82;;
5981;SDS011;3018;48.730;9.336;2023-05-07T00:26:42;8.25;;;5.65;;
5981;SDS011;3018;48.730;9.336;2023-05-07T00:29:08;7.07;;;6.00;;
5981;SDS011;3018;48.730;9.336;2023-05-07T00:31:34;7.18;;;5.68;;
5981;SDS011;3018;48.730;9.336;2023-05-07T00:34:00;5.75;;;5.18;;
5981;SDS011;3018;48.730;9.336;2023-05-07T00:36:27;6.75;;;5.43;;
5981;SDS011;3018;48.730;9.336;2023-05-07T00:38:54;6.75;;;5.18;;
5981;SDS011;3018;48.730;9.336;2023-05-07T00:41:20;7.05;;;4.72;;
5981;SDS011;3018;48.730;9.336;2023-05-07T00:43:48;5.22;;;4.60;;
5981;SDS011;3018;48.730;9.336;2023-05-07T00:46:16;7.97;;;5.07;;
5981;SDS011;3018;48.730;9.336;2023-05-07T00:48:42;4.82;;;4.35;;
5981;SDS011;3018;48.730;9.336;2023-05-07T00:51:09;4.25;;;4.00;;
5981;SDS011;3018;48.730;9.336;2023-05-07T00:53:36;6.10;;;4.53;;
5981;SDS011;3018;48.730;9.336;2023-05-07T00:56:02;4.38;;;4.00;;
5981;SDS011;3018;48.730;9.336;2023-05-07T00:58:29;4.25;;;3.90;;
5981;SDS011;3018;48.730;9.336;2023-05-07T01:00:57;5.13;;;4.10;;
5981;SDS011;3018;48.730;9.336;2023-05-07T01:03:24;6.47;;;3.88;;
5981;SDS011;3018;48.730;9.336;2023-05-07T01:05:50;4.80;;;3.63;;
5981;SDS011;3018;48.730;9.336;2023-05-07T01:08:19;3.97;;;3.67;;
5981;SDS011;3018;48.730;9.336;2023-05-07T01:10:45;4.35;;;3.60;;
5981;SDS011;3018;48.730;9.336;2023-05-07T01:13:12;3.92;;;3.63;;
5981;SDS011;3018;48.730;9.336;2023-05-07T01:15:38;3.65;;;3.40;;
5981;SDS011;3018;48.730;9.336;2023-05-07T01:18:07;3.35;;;3.15;;
5981;SDS011;3018;48.730;9.336;2023-05-07T01:20:33;5.72;;;3.45;;
5981;SDS011;3018;48.730;9.336;2023-05-07T01:23:01;4.65;;;3.08;;
5981;SDS011;3018;48.730;9.336;2023-05-07T01:25:29;3.97;;;2.88;;
5981;SDS011;3018;48.730;9.336;2023-05-07T01:27:55;4.65;;;2.90;;
5981;SDS011;3018;48.730;9.336;2023-05-07T01:30:21;4.68;;;2.90;;
5981;SDS011;3018;48.730;9.336;2023-05-07T01:32:49;3.08;;;2.85;;
5981;SDS011;3018;48.730;9.336;2023-05-07T01:35:18;4.80;;;3.13;;
5981;SDS011;3018;48.730;9.336;2023-05-07T01:37:44;2.78;;;2.58;;
5981;SDS011;3018;48.730;9.336;2023-05-07T01:40:12;2.88;;;2.70;;
5981;SDS011;3018;48.730;9.336;2023-05-07T01:42:39;3.35;;;2.80;;
5981;SDS011;3018;48.730;9.336;2023-05-07T01:45:06;2.65;;;2.55;;
5981;SDS011;3018;48.730;9.336;2023-05-07T01:47:32;4.70;;;2.45;;
5981;SDS011;3018;48.730;9.336;2023-05-07T01:49:59;4.00;;;2.58;;
5981;SDS011;3018;48.730;9.336;2023-05-07T01:52:26;2.30;;;2.20;;
5981;SDS011;3018;48.730;9.336;2023-05-07T01:54:53;2.95;;;2.75;;
5981;SDS011;3018;48.730;9.336;2023-05-07T01:57:21;3.13;;;2.92;;
5981;SDS011;3018;48.730;9.336;2023-05-07T01:59:47;3.20;;;2.90;;
5981;SDS011;3018;48.730;9.336;2023-05-07T02:02:13;4.18;;;3.35;;
5981;SDS011;3018;48.730;9.336;2023-05-07T02:04:40;3.30;;;3.10;;
5981;SDS011;3018;48.730;9.336;2023-05-07T02:07:06;4.20;;;3.80;;
5981;SDS011;3018;48.730;9.336;2023-05-07T02:09:32;3.35;;;3.15;;
5981;SDS011;3018;48.730;9.336;2023-05-07T02:11:58;4.18;;;3.78;;
5981;SDS011;3018;48.730;9.336;2023-05-07T02:14:26;3.67;;;3.38;;
5981;SDS011;3018;48.730;9.336;2023-05-07T02:16:53;4.90;;;3.60;;
5981;SDS011;3018;48.730;9.336;2023-05-07T02:19:19;3.47;;;3.25;;
5981;SDS011;3018;48.730;9.336;2023-05-07T02:21:46;11.00;;;3.55;;
5981;SDS011;3018;48.730;9.336;2023-05-07T02:24:12;6.10;;;3.50;;
5981;SDS011;3018;48.730;9.336;2023-05-07T02:26:39;5.68;;;3.78;;
5981;SDS011;3018;48.730;9.336;2023-05-07T02:29:05;4.03;;;3.72;;
5981;SDS011;3018;48.730;9.336;2023-05-07T02:31:33;3.67;;;3.47;;
5981;SDS011;3018;48.730;9.336;2023-05-07T02:33:59;3.67;;;3.40;;
5981;SDS011;3018;48.730;9.336;2023-05-07T02:36:26;5.32;;;3.60;;
5981;SDS011;3018;48.730;9.336;2023-05-07T02:38:52;3.58;;;3.22;;
5981;SDS011;3018;48.730;9.336;2023-05-07T02:41:18;3.53;;;3.22;;
5981;SDS011;3018;48.730;9.336;2023-05-07T02:43:45;4.20;;;3.20;;
5981;SDS011;3018;48.730;9.336;2023-05-07T02:46:11;4.68;;;3.30;;
5981;SDS011;3018;48.730;9.336;2023-05-07T02:48:39;3.35;;;3.05;;
5981;SDS011;3018;48.730;9.336;2023-05-07T02:51:05;3.05;;;2.85;;
5981;SDS011;3018;48.730;9.336;2023-05-07T02:53:31;3.40;;;3.05;;
5981;SDS011;3018;48.730;9.336;2023-05-07T02:55:58;3.40;;;2.90;;
5981;SDS011;3018;48.730;9.336;2023-05-07T02:58:25;3.28;;;3.08;;
5981;SDS011;3018;48.730;9.336;2023-05-07T03:00:51;3.83;;;3.40;;
5981;SDS011;3018;48.730;9.336;2023-05-07T03:03:19;3.15;;;3.05;;
5981;SDS011;3018;48.730;9.336;2023-05-07T03:05:47;3.92;;;3.40;;
5981;SDS011;3018;48.730;9.336;2023-05-07T03:08:13;3.75;;;3.45;;
5981;SDS011;3018;48.730;9.336;2023-05-07T03:10:39;4.28;;;3.53;;
5981;SDS011;3018;48.730;9.336;2023-05-07T03:13:06;4.28;;;3.60;;
5981;SDS011;3018;48.730;9.336;2023-05-07T03:15:32;6.38;;;3.53;;
5981;SDS011;3018;48.730;9.336;2023-05-07T03:17:58;5.07;;;2.85;;
5981;SDS011;3018;48.730;9.336;2023-05-07T03:20:24;3.80;;;3.50;;
5981;SDS011;3018;48.730;9.336;2023-05-07T03:22:52;6.97;;;3.30;;
5981;SDS011;3018;48.730;9.336;2023-05-07T03:25:18;3.03;;;2.75;;
5981;SDS011;3018;48.730;9.336;2023-05-07T03:27:44;3.60;;;3.10;;
5981;SDS011;3018;48.730;9.336;2023-05-07T03:30:11;3.03;;;2.85;;
5981;SDS011;3018;48.730;9.336;2023-05-07T03:32:38;3.17;;;2.75;;
5981;SDS011;3018;48.730;9.336;2023-05-07T03:35:04;4.88;;;3.10;;
5981;SDS011;3018;48.730;9.336;2023-05-07T03:37:30;3.40;;;3.10;;
5981;SDS011;3018;48.730;9.336;2023-05-07T03:39:58;4.78;;;3.40;;
5981;SDS011;3018;48.730;9.336;2023-05-07T03:42:24;3.97;;;3.72;;
5981;SDS011;3018;48.730;9.336;2023-05-07T03:44:51;3.78;;;3.35;;
5981;SDS011;3018;48.730;9.336;2023-05-07T03:47:17;3.65;;;3.35;;
5981;SDS011;3018;48.730;9.336;2023-05-07T03:49:43;3.65;;;3.35;;
5981;SDS011;3018;48.730;9.336;2023-05-07T03:52:09;3.40;;;3.20;;
5981;SDS011;3018;48.730;9.336;2023-05-07T03:54:36;4.20;;;2.85;;
5981;SDS011;3018;48.730;9.336;2023-05-07T03:57:03;3.50;;;3.20;;
5981;SDS011;3018;48.730;9.336;2023-05-07T03:59:30;2.83;;;2.70;;
5981;SDS011;3018;48.730;9.336;2023-05-07T04:01:56;3.10;;;2.90;;
5981;SDS011;3018;48.730;9.336;2023-05-07T04:04:22;3.28;;;3.13;;
5981;SDS011;3018;48.730;9.336;2023-05-07T04:06:48;3.42;;;3.08;;
5981;SDS011;3018;48.730;9.336;2023-05-07T04:09:15;5.30;;;2.90;;
5981;SDS011;3018;48.730;9.336;2023-05-07T04:11:41;2.78;;;2.65;;
5981;SDS011;3018;48.730;9.336;2023-05-07T04:14:09;3.40;;;2.60;;
5981;SDS011;3018;48.730;9.336;2023-05-07T04:16:35;4.40;;;2.67;;
5981;SDS011;3018;48.730;9.336;2023-05-07T04:19:01;3.35;;;3.22;;
5981;SDS011;3018;48.730;9.336;2023-05-07T04:21:27;3.10;;;2.90;;
5981;SDS011;3018;48.730;9.336;2023-05-07T04:23:53;2.78;;;2.58;;
5981;SDS011;3018;48.730;9.336;2023-05-07T04:26:20;3.88;;;3.40;;
5981;SDS011;3018;48.730;9.336;2023-05-07T04:28:48;3.60;;;2.90;;
5981;SDS011;3018;48.730;9.336;2023-05-07T04:31:15;3.15;;;2.92;;
5981;SDS011;3018;48.730;9.336;2023-05-07T04:33:42;3.38;;;3.00;;
5981;SDS011;3018;48.730;9.336;2023-05-07T04:36:08;2.88;;;2.67;;
5981;SDS011;3018;48.730;9.336;2023-05-07T04:38:34;4.10;;;2.90;;
5981;SDS011;3018;48.730;9.336;2023-05-07T04:41:02;3.58;;;3.22;;
5981;SDS011;3018;48.730;9.336;2023-05-07T04:43:28;3.20;;;2.90;;
5981;SDS011;3018;48.730;9.336;2023-05-07T04:45:55;3.22;;;3.03;;
5981;SDS011;3018;48.730;9.336;2023-05-07T04:48:23;3.15;;;2.92;;
5981;SDS011;3018;48.730;9.336;2023-05-07T04:50:49;3.13;;;2.92;;
5981;SDS011;3018;48.730;9.336;2023-05-07T04:53:15;3.00;;;2.75;;
5981;SDS011;3018;48.730;9.336;2023-05-07T04:55:42;2.97;;;2.45;;
5981;SDS011;3018;48.730;9.336;2023-05-07T04:58:08;3.20;;;2.45;;
5981;SDS011;3018;48.730;9.336;2023-05-07T05:00:34;3.10;;;2.42;;
5981;SDS011;3018;48.730;9.336;2023-05-07T05:03:00;2.53;;;2.40;;
5981;SDS011;3018;48.730;9.336;2023-05-07T05:05:28;2.38;;;2.28;;
5981;SDS011;3018;48.730;9.336;2023-05-07T05:07:54;2.50;;;2.40;;
5981;SDS011;3018;48.730;9.336;2023-05-07T05:10:21;2.70;;;2.50;;
5981;SDS011;3018;48.730;9.336;2023-05-07T05:12:47;2.60;;;2.40;;
5981;SDS011;3018;48.730;9.336;2023-05-07T05:15:14;2.80;;;2.67;;
5981;SDS011;3018;48.730;9.336;2023-05-07T05:17:40;4.63;;;2.88;;
5981;SDS011;3018;48.730;9.336;2023-05-07T05:20:06;3.90;;;2.40;;
5981;SDS011;3018;48.730;9.336;2023-05-07T05:22:36;2.97;;;2.53;;
5981;SDS011;3018;48.730;9.336;2023-05-07T05:25:02;2.15;;;2.13;;
5981;SDS011;3018;48.730;9.336;2023-05-07T05:27:29;3.03;;;2.90;;
5981;SDS011;3018;48.730;9.336;2023-05-07T05:29:55;4.68;;;3.35;;
5981;SDS011;3018;48.730;9.336;2023-05-07T05:32:21;3.65;;;2.90;;
5981;SDS011;3018;48.730;9.336;2023-05-07T05:34:48;3.33;;;3.13;;
5981;SDS011;3018;48.730;9.336;2023-05-07T05:37:14;3.17;;;3.05;;
5981;SDS011;3018;48.730;9.336;2023-05-07T05:39:42;3.65;;;3.47;;
5981;SDS011;3018;48.730;9.336;2023-05-07T05:42:08;3.40;;;3.10;;
5981;SDS011;3018;48.730;9.336;2023-05-07T05:44:34;3.85;;;3.60;;
5981;SDS011;3018;48.730;9.336;2023-05-07T05:47:01;5.43;;;3.50;;
5981;SDS011;3018;48.730;9.336;2023-05-07T05:49:27;4.45;;;4.05;;
5981;SDS011;3018;48.730;9.336;2023-05-07T05:51:53;4.28;;;3.90;;
5981;SDS011;3018;48.730;9.336;2023-05-07T05:54:20;3.70;;;3.50;;
5981;SDS011;3018;48.730;9.336;2023-05-07T05:56:48;3.63;;;3.42;;
5981;SDS011;3018;48.730;9.336;2023-05-07T05:59:14;4.65;;;3.88;;
5981;SDS011;3018;48.730;9.336;2023-05-07T06:01:41;4.25;;;3.70;;
5981;SDS011;3018;48.730;9.336;2023-05-07T06:04:07;3.90;;;3.63;;
5981;SDS011;3018;48.730;9.336;2023-05-07T06:06:33;6.75;;;3.80;;
5981;SDS011;3018;48.730;9.336;2023-05-07T06:09:00;4.10;;;3.70;;
5981;SDS011;3018;48.730;9.336;2023-05-07T06:11:26;5.50;;;3.60;;
5981;SDS011;3018;48.730;9.336;2023-05-07T06:13:54;4.22;;;3.22;;
5981;SDS011;3018;48.730;9.336;2023-05-07T06:16:20;3.53;;;3.22;;
5981;SDS011;3018;48.730;9.336;2023-05-07T06:18:47;3.47;;;3.28;;
5981;SDS011;3018;48.730;9.336;2023-05-07T06:21:13;3.45;;;3.25;;
5981;SDS011;3018;48.730;9.336;2023-05-07T06:23:40;3.35;;;3.05;;
5981;SDS011;3018;48.730;9.336;2023-05-07T06:26:06;3.35;;;2.88;;
5981;SDS011;3018;48.730;9.336;2023-05-07T06:28:32;3.72;;;3.00;;
5981;SDS011;3018;48.730;9.336;2023-05-07T06:31:11;3.58;;;2.80;;
5981;SDS011;3018;48.730;9.336;2023-05-07T06:33:38;2.80;;;2.60;;
5981;SDS011;3018;48.730;9.336;2023-05-07T06:36:05;2.90;;;2.70;;
5981;SDS011;3018;48.730;9.336;2023-05-07T06:38:31;3.17;;;2.85;;
5981;SDS011;3018;48.730;9.336;2023-05-07T06:40:57;4.95;;;2.83;;
5981;SDS011;3018;48.730;9.336;2023-05-07T06:43:23;3.05;;;2.85;;
5981;SDS011;3018;48.730;9.336;2023-05-07T06:45:50;6.30;;;2.90;;
5981;SDS011;3018;48.730;9.336;2023-05-07T06:48:17;2.58;;;2.42;;
5981;SDS011;3018;48.730;9.336;2023-05-07T06:50:43;2.78;;;2.63;;
5981;SDS011;3018;48.730;9.336;2023-05-07T06:53:10;2.92;;;2.75;;
5981;SDS011;3018;48.730;9.336;2023-05-07T06:55:36;2.53;;;2.40;;
5981;SDS011;3018;48.730;9.336;2023-05-07T06:58:03;2.70;;;2.50;;
5981;SDS011;3018;48.730;9.336;2023-05-07T07:00:29;3.95;;;2.50;;
5981;SDS011;3018;48.730;9.336;2023-05-07T07:02:56;3.00;;;2.80;;
5981;SDS011;3018;48.730;9.336;2023-05-07T07:05:24;3.08;;;2.88;;
5981;SDS011;3018;48.730;9.336;2023-05-07T07:07:50;3.28;;;3.08;;
5981;SDS011;3018;48.730;9.336;2023-05-07T07:10:17;4.43;;;2.90;;
5981;SDS011;3018;48.730;9.336;2023-05-07T07:12:44;3.20;;;3.00;;
5981;SDS011;3018;48.730;9.336;2023-05-07T07:15:10;8.48;;;2.60;;
5981;SDS011;3018;48.730;9.336;2023-05-07T07:17:36;3.72;;;2.90;;
5981;SDS011;3018;48.730;9.336;2023-05-07T07:20:03;3.10;;;2.28;;
5981;SDS011;3018;48.730;9.336;2023-05-07T07:22:31;2.97;;;2.80;;
5981;SDS011;3018;48.730;9.336;2023-05-07T07:24:57;3.25;;;2.30;;
5981;SDS011;3018;48.730;9.336;2023-05-07T07:27:23;7.18;;;2.67;;
5981;SDS011;3018;48.730;9.336;2023-05-07T07:29:49;2.78;;;2.67;;
5981;SDS011;3018;48.730;9.336;2023-05-07T07:32:16;7.05;;;2.58;;
5981;SDS011;3018;48.730;9.336;2023-05-07T07:34:42;2.40;;;2.20;;
5981;SDS011;3018;48.730;9.336;2023-05-07T07:37:08;3.42;;;2.50;;
5981;SDS011;3018;48.730;9.336;2023-05-07T07:39:36;2.45;;;2.25;;
5981;SDS011;3018;48.730;9.336;2023-05-07T07:42:02;3.30;;;2.45;;
5981;SDS011;3018;48.730;9.336;2023-05-07T07:44:29;10.07;;;6.97;;
5981;SDS011;3018;48.730;9.336;2023-05-07T07:46:55;3.67;;;3.15;;
5981;SDS011;3018;48.730;9.336;2023-05-07T07:49:21;3.08;;;2.40;;
5981;SDS011;3018;48.730;9.336;2023-05-07T07:51:48;3.65;;;2.50;;
5981;SDS011;3018;48.730;9.336;2023-05-07T07:54:14;2.58;;;2.00;;
5981;SDS011;3018;48.730;9.336;2023-05-07T07:56:42;2.90;;;2.70;;
5981;SDS011;3018;48.730;9.336;2023-05-07T07:59:08;3.10;;;2.60;;
5981;SDS011;3018;48.730;9.336;2023-05-07T08:01:35;2.60;;;2.40;;
5981;SDS011;3018;48.730;9.336;2023-05-07T08:04:01;2.90;;;2.70;;
5981;SDS011;3018;48.730;9.336;2023-05-07T08:06:28;2.85;;;2.30;;
5981;SDS011;3018;48.730;9.336;2023-05-07T08:08:54;5.18;;;2.60;;
5981;SDS011;3018;48.730;9.336;2023-05-07T08:11:20;2.55;;;2.35;;
5981;SDS011;3018;48.730;9.336;2023-05-07T08:13:48;2.47;;;2.28;;
5981;SDS011;3018;48.730;9.336;2023-05-07T08:16:15;5.97;;;2.70;;
5981;SDS011;3018;48.730;9.336;2023-05-07T08:18:41;2.63;;;2.53;;
5981;SDS011;3018;48.730;9.336;2023-05-07T08:21:07;2.67;;;2.20;;
5981;SDS011;3018;48.730;9.336;2023-05-07T08:23:34;2.15;;;2.05;;
5981;SDS011;3018;48.730;9.336;2023-05-07T08:26:00;3.80;;;2.10;;
5981;SDS011;3018;48.730;9.336;2023-05-07T08:28:26;4.25;;;2.60;;
5981;SDS011;3018;48.730;9.336;2023-05-07T08:30:54;2.67;;;2.30;;
5981;SDS011;3018;48.730;9.336;2023-05-07T08:33:21;4.03;;;2.40;;
5981;SDS011;3018;48.730;9.336;2023-05-07T08:35:47;2.20;;;2.10;;
5981;SDS011;3018;48.730;9.336;2023-05-07T08:38:14;2.28;;;2.10;;
5981;SDS011;3018;48.730;9.336;2023-05-07T08:40:40;3.88;;;2.13;;
5981;SDS011;3018;48.730;9.336;2023-05-07T08:43:07;2.30;;;2.10;;
5981;SDS011;3018;48.730;9.336;2023-05-07T08:45:33;3.80;;;2.17;;
5981;SDS011;3018;48.730;9.336;2023-05-07T08:48:02;2.35;;;1.85;;
5981;SDS011;3018;48.730;9.336;2023-05-07T08:50:29;4.47;;;1.98;;
5981;SDS011;3018;48.730;9.336;2023-05-07T08:52:55;2.92;;;1.77;;
5981;SDS011;3018;48.730;9.336;2023-05-07T08:55:22;2.42;;;2.22;;
5981;SDS011;3018;48.730;9.336;2023-05-07T08:57:49;2.55;;;2.10;;
5981;SDS011;3018;48.730;9.336;2023-05-07T09:00:17;2.05;;;1.95;;
5981;SDS011;3018;48.730;9.336;2023-05-07T09:02:43;3.00;;;1.80;;
5981;SDS011;3018;48.730;9.336;2023-05-07T09:05:11;4.18;;;2.55;;
5981;SDS011;3018;48.730;9.336;2023-05-07T09:07:37;3.28;;;1.83;;
5981;SDS011;3018;48.730;9.336;2023-05-07T09:10:04;2.70;;;2.17;;
5981;SDS011;3018;48.730;9.336;2023-05-07T09:12:30;1.88;;;1.77;;
5981;SDS011;3018;48.730;9.336;2023-05-07T09:14:57;2.00;;;1.90;;
5981;SDS011;3018;48.730;9.336;2023-05-07T09:17:23;1.98;;;1.85;;
5981;SDS011;3018;48.730;9.336;2023-05-07T09:19:49;2.60;;;2.08;;
5981;SDS011;3018;48.730;9.336;2023-05-07T09:22:17;1.70;;;1.60;;
5981;SDS011;3018;48.730;9.336;2023-05-07T09:24:46;2.50;;;2.30;;
5981;SDS011;3018;48.730;9.336;2023-05-07T09:27:13;2.35;;;1.85;;
5981;SDS011;3018;48.730;9.336;2023-05-07T09:29:39;3.10;;;2.10;;
5981;SDS011;3018;48.730;9.336;2023-05-07T09:32:05;4.93;;;1.80;;
5981;SDS011;3018;48.730;9.336;2023-05-07T09:34:32;3.63;;;1.90;;
5981;SDS011;3018;48.730;9.336;2023-05-07T09:36:58;1.92;;;1.90;;
5981;SDS011;3018;48.730;9.336;2023-05-07T09:39:26;4.25;;;1.75;;
5981;SDS011;3018;48.730;9.336;2023-05-07T09:41:52;7.47;;;6.70;;
5981;SDS011;3018;48.730;9.336;2023-05-07T09:44:19;3.67;;;2.30;;
5981;SDS011;3018;48.730;9.336;2023-05-07T09:46:46;2.67;;;1.42;;
5981;SDS011;3018;48.730;9.336;2023-05-07T09:49:16;2.60;;;1.55;;
5981;SDS011;3018;48.730;9.336;2023-05-07T09:51:45;1.90;;;1.80;;
5981;SDS011;3018;48.730;9.336;2023-05-07T09:54:13;2.10;;;1.45;;
5981;SDS011;3018;48.730;9.336;2023-05-07T09:56:41;1.70;;;1.60;;
5981;SDS011;3018;48.730;9.336;2023-05-07T09:59:08;1.75;;;1.33;;
5981;SDS011;3018;48.730;9.336;2023-05-07T10:01:36;2.20;;;1.30;;
5981;SDS011;3018;48.730;9.336;2023-05-07T10:04:02;2.55;;;1.50;;
5981;SDS011;3018;48.730;9.336;2023-05-07T10:06:29;1.20;;;1.20;;
5981;SDS011;3018;48.730;9.336;2023-05-07T10:08:56;1.13;;;1.10;;
5981;SDS011;3018;48.730;9.336;2023-05-07T10:11:22;2.15;;;1.83;;
5981;SDS011;3018;48.730;9.336;2023-05-07T10:13:50;1.70;;;1.42;;
5981;SDS011;3018;48.730;9.336;2023-05-07T10:16:18;2.80;;;1.40;;
5981;SDS011;3018;48.730;9.336;2023-05-07T10:18:44;1.50;;;1.40;;
5981;SDS011;3018;48.730;9.336;2023-05-07T10:21:16;1.88;;;1.77;;
5981;SDS011;3018;48.730;9.336;2023-05-07T10:23:44;3.28;;;1.80;;
5981;SDS011;3018;48.730;9.336;2023-05-07T10:26:10;2.63;;;1.40;;
5981;SDS011;3018;48.730;9.336;2023-05-07T10:28:38;1.50;;;1.40;;
5981;SDS011;3018;48.730;9.336;2023-05-07T10:31:14;2.35;;;1.27;;
5981;SDS011;3018;48.730;9.336;2023-05-07T10:33:42;1.45;;;1.35;;
5981;SDS011;3018;48.730;9.336;2023-05-07T10:36:10;1.75;;;1.38;;
5981;SDS011;3018;48.730;9.336;2023-05-07T10:38:36;2.22;;;1.00;;
5981;SDS011;3018;48.730;9.336;2023-05-07T10:41:03;3.97;;;1.40;;
5981;SDS011;3018;48.730;9.336;2023-05-07T10:43:40;1.95;;;1.60;;
5981;SDS011;3018;48.730;9.336;2023-05-07T10:46:10;3.78;;;3.42;;
5981;SDS011;3018;48.730;9.336;2023-05-07T10:48:47;2.00;;;1.60;;
5981;SDS011;3018;48.730;9.336;2023-05-07T10:51:32;2.20;;;1.30;;
5981;SDS011;3018;48.730;9.336;2023-05-07T10:56:43;5.25;;;1.88;;
5981;SDS011;3018;48.730;9.336;2023-05-07T11:01:56;2.75;;;1.63;;
5981;SDS011;3018;48.730;9.336;2023-05-07T11:04:24;2.90;;;1.35;;
5981;SDS011;3018;48.730;9.336;2023-05-07T11:15:07;1.77;;;1.20;;
5981;SDS011;3018;48.730;9.336;2023-05-07T11:17:34;1.60;;;1.50;;
5981;SDS011;3018;48.730;9.336;2023-05-07T11:20:02;1.98;;;1.38;;
5981;SDS011;3018;48.730;9.336;2023-05-07T11:22:36;2.15;;;1.20;;
5981;SDS011;3018;48.730;9.336;2023-05-07T11:25:04;1.60;;;1.50;;
5981;SDS011;3018;48.730;9.336;2023-05-07T11:27:31;1.33;;;1.20;;
5981;SDS011;3018;48.730;9.336;2023-05-07T11:29:58;1.35;;;1.17;;
5981;SDS011;3018;48.730;9.336;2023-05-07T11:32:26;1.90;;;1.20;;
5981;SDS011;3018;48.730;9.336;2023-05-07T11:34:53;1.27;;;1.25;;
5981;SDS011;3018;48.730;9.336;2023-05-07T11:37:21;1.95;;;1.25;;
5981;SDS011;3018;48.730;9.336;2023-05-07T11:39:48;1.60;;;1.50;;
5981;SDS011;3018;48.730;9.336;2023-05-07T11:42:25;1.92;;;1.13;;
5981;SDS011;3018;48.730;9.336;2023-05-07T11:44:51;3.85;;;1.33;;
5981;SDS011;3018;48.730;9.336;2023-05-07T11:47:18;0.90;;;0.90;;
5981;SDS011;3018;48.730;9.336;2023-05-07T11:49:45;0.90;;;0.90;;
5981;SDS011;3018;48.730;9.336;2023-05-07T11:52:12;1.15;;;1.15;;
5981;SDS011;3018;48.730;9.336;2023-05-07T11:54:40;1.45;;;1.00;;
5981;SDS011;3018;48.730;9.336;2023-05-07T11:57:06;1.13;;;1.13;;
5981;SDS011;3018;48.730;9.336;2023-05-07T11:59:38;1.88;;;1.17;;
5981;SDS011;3018;48.730;9.336;2023-05-07T12:02:05;1.88;;;1.13;;
5981;SDS011;3018;48.730;9.336;2023-05-07T12:04:31;1.33;;;1.23;;
5981;SDS011;3018;48.730;9.336;2023-05-07T12:06:57;1.10;;;1.10;;
5981;SDS011;3018;48.730;9.336;2023-05-07T12:09:24;1.27;;;1.17;;
5981;SDS011;3018;48.730;9.336;2023-05-07T12:11:52;2.70;;;1.40;;
5981;SDS011;3018;48.730;9.336;2023-05-07T12:14:18;2.53;;;1.80;;
5981;SDS011;3018;48.730;9.336;2023-05-07T12:16:45;1.20;;;1.20;;
5981;SDS011;3018;48.730;9.336;2023-05-07T12:19:11;2.00;;;1.67;;
5981;SDS011;3018;48.730;9.336;2023-05-07T12:21:38;3.45;;;1.48;;
5981;SDS011;3018;48.730;9.336;2023-05-07T12:24:05;1.65;;;1.55;;
5981;SDS011;3018;48.730;9.336;2023-05-07T12:26:31;1.50;;;1.40;;
5981;SDS011;3018;48.730;9.336;2023-05-07T12:28:59;1.65;;;1.33;;
5981;SDS011;3018;48.730;9.336;2023-05-07T12:31:25;5.22;;;1.63;;
5981;SDS011;3018;48.730;9.336;2023-05-07T12:33:51;2.63;;;1.60;;
5981;SDS011;3018;48.730;9.336;2023-05-07T12:36:17;1.67;;;1.30;;
5981;SDS011;3018;48.730;9.336;2023-05-07T12:38:44;4.15;;;1.20;;
5981;SDS011;3018;48.730;9.336;2023-05-07T12:41:10;1.95;;;1.20;;
5981;SDS011;3018;48.730;9.336;2023-05-07T12:43:37;1.80;;;1.48;;
5981;SDS011;3018;48.730;9.336;2023-05-07T12:46:05;1.30;;;1.30;;
5981;SDS011;3018;48.730;9.336;2023-05-07T12:48:31;1.30;;;1.13;;
5981;SDS011;3018;48.730;9.336;2023-05-07T12:50:59;2.25;;;1.20;;
5981;SDS011;3018;48.730;9.336;2023-05-07T12:53:26;1.40;;;1.38;;
5981;SDS011;3018;48.730;9.336;2023-05-07T12:55:54;1.60;;;1.50;;
5981;SDS011;3018;48.730;9.336;2023-05-07T12:58:21;2.78;;;1.35;;
5981;SDS011;3018;48.730;9.336;2023-05-07T13:00:49;1.60;;;1.48;;
5981;SDS011;3018;48.730;9.336;2023-05-07T13:03:24;1.30;;;1.30;;
5981;SDS011;3018;48.730;9.336;2023-05-07T13:05:51;12.60;;;2.78;;
5981;SDS011;3018;48.730;9.336;2023-05-07T13:08:26;15.68;;;3.13;;
5981;SDS011;3018;48.730;9.336;2023-05-07T13:10:53;10.68;;;3.10;;
5981;SDS011;3018;48.730;9.336;2023-05-07T13:13:19;5.03;;;2.78;;
5981;SDS011;3018;48.730;9.336;2023-05-07T13:15:46;6.25;;;3.22;;
5981;SDS011;3018;48.730;9.336;2023-05-07T13:18:12;7.03;;;3.50;;
5981;SDS011;3018;48.730;9.336;2023-05-07T13:20:39;10.07;;;2.95;;
5981;SDS011;3018;48.730;9.336;2023-05-07T13:23:06;7.65;;;3.08;;
5981;SDS011;3018;48.730;9.336;2023-05-07T13:25:32;5.45;;;2.70;;
5981;SDS011;3018;48.730;9.336;2023-05-07T13:27:58;7.68;;;2.78;;
5981;SDS011;3018;48.730;9.336;2023-05-07T13:30:25;4.25;;;2.95;;
5981;SDS011;3018;48.730;9.336;2023-05-07T13:32:51;4.85;;;2.60;;
5981;SDS011;3018;48.730;9.336;2023-05-07T13:35:18;6.40;;;2.60;;
5981;SDS011;3018;48.730;9.336;2023-05-07T13:37:45;6.85;;;2.22;;
5981;SDS011;3018;48.730;9.336;2023-05-07T13:40:13;3.28;;;1.80;;
5981;SDS011;3018;48.730;9.336;2023-05-07T13:42:39;2.33;;;1.92;;
5981;SDS011;3018;48.730;9.336;2023-05-07T13:45:06;6.85;;;1.98;;
5981;SDS011;3018;48.730;9.336;2023-05-07T13:47:33;5.90;;;2.10;;
5981;SDS011;3018;48.730;9.336;2023-05-07T13:49:59;4.32;;;2.00;;
5981;SDS011;3018;48.730;9.336;2023-05-07T13:52:25;3.72;;;2.25;;
5981;SDS011;3018;48.730;9.336;2023-05-07T13:54:53;4.13;;;1.52;;
5981;SDS011;3018;48.730;9.336;2023-05-07T13:57:20;2.80;;;1.50;;
5981;SDS011;3018;48.730;9.336;2023-05-07T13:59:46;4.55;;;1.67;;
5981;SDS011;3018;48.730;9.336;2023-05-07T14:02:12;3.03;;;1.90;;
5981;SDS011;3018;48.730;9.336;2023-05-07T14:04:38;4.60;;;2.78;;
5981;SDS011;3018;48.730;9.336;2023-05-07T14:07:05;3.55;;;2.10;;
5981;SDS011;3018;48.730;9.336;2023-05-07T14:09:31;2.35;;;1.30;;
5981;SDS011;3018;48.730;9.336;2023-05-07T14:11:58;1.58;;;1.45;;
5981;SDS011;3018;48.730;9.336;2023-05-07T14:14:25;3.33;;;1.30;;
5981;SDS011;3018;48.730;9.336;2023-05-07T14:16:51;3.05;;;1.20;;
5981;SDS011;3018;48.730;9.336;2023-05-07T14:19:17;4.93;;;1.15;;
5981;SDS011;3018;48.730;9.336;2023-05-07T14:21:43;2.72;;;1.20;;
5981;SDS011;3018;48.730;9.336;2023-05-07T14:24:10;3.53;;;1.80;;
5981;SDS011;3018;48.730;9.336;2023-05-07T14:26:37;6.10;;;1.60;;
5981;SDS011;3018;48.730;9.336;2023-05-07T14:29:04;3.33;;;1.50;;
5981;SDS011;3018;48.730;9.336;2023-05-07T14:31:30;2.08;;;1.63;;
5981;SDS011;3018;48.730;9.336;2023-05-07T14:33:58;1.65;;;1.55;;
5981;SDS011;3018;48.730;9.336;2023-05-07T14:36:24;3.58;;;1.80;;
5981;SDS011;3018;48.730;9.336;2023-05-07T14:38:51;2.35;;;1.73;;
5981;SDS011;3018;48.730;9.336;2023-05-07T14:41:17;3.55;;;1.73;;
5981;SDS011;3018;48.730;9.336;2023-05-07T14:43:43;2.03;;;1.90;;
5981;SDS011;3018;48.730;9.336;2023-05-07T14:46:16;2.80;;;1.77;;
5981;SDS011;3018;48.730;9.336;2023-05-07T14:48:43;2.90;;;1.98;;
5981;SDS011;3018;48.730;9.336;2023-05-07T14:51:09;4.32;;;1.90;;
5981;SDS011;3018;48.730;9.336;2023-05-07T14:53:35;2.58;;;2.17;;
5981;SDS011;3018;48.730;9.336;2023-05-07T14:56:02;2.30;;;2.10;;
5981;SDS011;3018;48.730;9.336;2023-05-07T14:58:28;4.22;;;2.20;;
5981;SDS011;3018;48.730;9.336;2023-05-07T15:00:55;8.23;;;2.50;;
5981;SDS011;3018;48.730;9.336;2023-05-07T15:03:22;2.33;;;2.13;;
5981;SDS011;3018;48.730;9.336;2023-05-07T15:05:49;2.90;;;2.45;;
5981;SDS011;3018;48.730;9.336;2023-05-07T15:08:16;5.57;;;2.55;;
5981;SDS011;3018;48.730;9.336;2023-05-07T15:10:42;2.30;;;2.00;;
5981;SDS011;3018;48.730;9.336;2023-05-07T15:13:09;3.92;;;2.20;;
5981;SDS011;3018;48.730;9.336;2023-05-07T15:15:35;4.75;;;2.80;;
5981;SDS011;3018;48.730;9.336;2023-05-07T15:18:01;4.18;;;3.83;;
5981;SDS011;3018;48.730;9.336;2023-05-07T15:20:29;9.13;;;3.88;;
5981;SDS011;3018;48.730;9.336;2023-05-07T15:22:55;6.00;;;3.50;;
5981;SDS011;3018;48.730;9.336;2023-05-07T15:25:22;6.80;;;3.10;;
5981;SDS011;3018;48.730;9.336;2023-05-07T15:27:48;5.68;;;2.70;;